createdAt,value
2024-04-26T00:00:10.477Z,77.98
2024-04-26T00:01:10.480Z,77.87
2024-04-26T00:02:10.471Z,77.67
2024-04-26T00:03:10.530Z,77.77
2024-04-26T00:04:10.467Z,77.77
2024-04-26T00:05:10.439Z,77.81
2024-04-26T00:06:10.430Z,77.91
2024-04-26T00:07:10.461Z,78.01
2024-04-26T00:08:10.404Z,77.81
2024-04-26T00:09:10.377Z,77.91
2024-04-26T00:10:10.429Z,78.22
2024-04-26T00:11:10.351Z,78.22
2024-04-26T00:12:10.433Z,78.32
2024-04-26T00:13:10.337Z,78.32
2024-04-26T00:14:10.357Z,78.32
2024-04-26T00:15:10.316Z,78.11
2024-04-26T00:16:10.332Z,78.01
2024-04-26T00:17:10.312Z,78.01
2024-04-26T00:18:10.396Z,78.01
2024-04-26T00:19:10.268Z,78.11
2024-04-26T00:20:10.285Z,78.22
2024-04-26T00:21:10.255Z,78.22
2024-04-26T00:22:10.261Z,78.32
2024-04-26T00:23:10.230Z,78.42
2024-04-26T00:24:10.230Z,78.63
2024-04-26T00:25:10.212Z,78.74
2024-04-26T00:26:10.227Z,78.63
2024-04-26T00:27:10.455Z,78.53
2024-04-26T00:28:10.195Z,78.39
2024-04-26T00:29:10.188Z,78.18
2024-04-26T00:30:10.229Z,78.28
2024-04-26T00:31:10.161Z,78.28
2024-04-26T00:32:10.197Z,78.08
2024-04-26T00:33:10.238Z,78.08
2024-04-26T00:34:10.167Z,78.28
2024-04-26T00:35:10.125Z,78.39
2024-04-26T00:36:10.098Z,78.39
2024-04-26T00:37:10.109Z,78.28
2024-04-26T00:38:10.111Z,78.39
2024-04-26T00:39:10.131Z,78.28
2024-04-26T00:40:10.076Z,78.39
2024-04-26T00:41:10.061Z,78.39
2024-04-26T00:42:10.094Z,78.49
2024-04-26T00:43:10.056Z,78.39
2024-04-26T00:44:10.055Z,78.49
2024-04-26T00:45:10.024Z,78.49
2024-04-26T00:46:10.024Z,78.18
2024-04-26T00:47:10.013Z,78.28
2024-04-26T00:48:10.109Z,78.28
2024-04-26T00:49:10.081Z,78.39
2024-04-26T00:50:09.976Z,78.28
2024-04-26T00:51:09.956Z,78.28
2024-04-26T00:52:09.953Z,78.28
2024-04-26T00:53:09.937Z,78.28
2024-04-26T00:54:09.940Z,78.39
2024-04-26T00:55:09.917Z,78.49
2024-04-26T00:56:09.898Z,78.39
2024-04-26T00:57:09.901Z,78.49
2024-04-26T00:58:09.884Z,78.49
2024-04-26T00:59:09.867Z,78.39
2024-04-26T01:00:09.852Z,78.63
2024-04-26T01:01:09.930Z,78.49
2024-04-26T01:02:09.922Z,78.28
2024-04-26T01:03:09.831Z,78.18
2024-04-26T01:04:09.860Z,78.28
2024-04-26T01:05:09.833Z,78.39
2024-04-26T01:06:09.814Z,78.28
2024-04-26T01:07:09.798Z,78.18
2024-04-26T01:08:13.614Z,78.39
2024-04-26T01:09:09.794Z,78.08
2024-04-26T01:10:09.749Z,77.98
2024-04-26T01:11:09.833Z,77.98
2024-04-26T01:12:09.794Z,77.87
2024-04-26T01:13:09.728Z,77.77
2024-04-26T01:14:09.701Z,77.67
2024-04-26T01:15:09.731Z,77.70
2024-04-26T01:16:09.696Z,77.91
2024-04-26T01:17:09.724Z,78.01
2024-04-26T01:18:09.737Z,78.08
2024-04-26T01:19:09.734Z,77.87
2024-04-26T01:20:09.648Z,77.91
2024-04-26T01:21:09.633Z,77.98
2024-04-26T01:22:09.659Z,77.98
2024-04-26T01:23:09.630Z,78.01
2024-04-26T01:24:09.602Z,78.08
2024-04-26T01:25:09.614Z,78.18
2024-04-26T01:26:09.588Z,78.18
2024-04-26T01:27:09.599Z,78.18
2024-04-26T01:28:09.563Z,78.08
2024-04-26T01:29:09.551Z,78.08
2024-04-26T01:30:09.539Z,77.77
2024-04-26T01:31:09.540Z,77.77
2024-04-26T01:32:09.567Z,77.98
2024-04-26T01:33:09.654Z,77.98
2024-04-26T01:34:09.528Z,77.87
2024-04-26T01:35:09.515Z,77.91
2024-04-26T01:36:09.541Z,78.22
2024-04-26T01:37:09.509Z,78.53
2024-04-26T01:38:09.454Z,78.63
2024-04-26T01:39:09.497Z,78.63
2024-04-26T01:40:09.433Z,78.63
2024-04-26T01:41:09.423Z,78.63
2024-04-26T01:42:09.472Z,78.49
2024-04-26T01:43:09.442Z,78.49
2024-04-26T01:44:09.393Z,78.39
2024-04-26T01:45:09.465Z,78.59
2024-04-26T01:46:09.462Z,78.59
2024-04-26T01:47:09.390Z,78.70
2024-04-26T01:48:09.619Z,78.70
2024-04-26T01:49:09.362Z,78.70
2024-04-26T01:50:09.349Z,78.80
2024-04-26T01:51:09.351Z,78.70
2024-04-26T01:52:09.336Z,78.70
2024-04-26T01:53:09.318Z,78.59
2024-04-26T01:54:09.327Z,78.39
2024-04-26T01:55:09.318Z,78.39
2024-04-26T01:56:09.284Z,78.39
2024-04-26T01:57:09.301Z,78.39
2024-04-26T01:58:09.290Z,78.39
2024-04-26T01:59:09.249Z,78.28
2024-04-26T02:00:09.276Z,78.35
2024-04-26T02:01:09.261Z,78.14
2024-04-26T02:02:09.264Z,78.14
2024-04-26T02:03:09.372Z,78.05
2024-04-26T02:04:09.285Z,78.05
2024-04-26T02:05:09.181Z,78.14
2024-04-26T02:06:09.259Z,78.14
2024-04-26T02:07:09.191Z,78.05
2024-04-26T02:08:09.157Z,77.84
2024-04-26T02:09:09.230Z,78.05
2024-04-26T02:10:09.118Z,78.05
2024-04-26T02:11:09.161Z,78.25
2024-04-26T02:12:09.146Z,78.14
2024-04-26T02:13:09.103Z,77.94
2024-04-26T02:14:09.086Z,77.94
2024-04-26T02:15:09.135Z,77.73
2024-04-26T02:16:09.064Z,77.70
2024-04-26T02:17:09.189Z,77.53
2024-04-26T02:18:09.151Z,77.49
2024-04-26T02:19:09.154Z,77.39
2024-04-26T02:20:09.024Z,77.49
2024-04-26T02:21:09.116Z,77.59
2024-04-26T02:22:09.039Z,77.49
2024-04-26T02:23:08.998Z,77.39
2024-04-26T02:24:09.074Z,77.49
2024-04-26T02:25:08.976Z,77.39
2024-04-26T02:26:08.967Z,77.18
2024-04-26T02:27:09.099Z,77.18
2024-04-26T02:28:08.938Z,77.18
2024-04-26T02:29:08.936Z,77.28
2024-04-26T02:30:08.990Z,76.98
2024-04-26T02:31:08.912Z,77.08
2024-04-26T02:32:08.981Z,76.98
2024-04-26T02:33:09.016Z,76.77
2024-04-26T02:34:08.973Z,76.77
2024-04-26T02:35:08.866Z,76.77
2024-04-26T02:36:09.032Z,76.87
2024-04-26T02:37:08.878Z,76.87
2024-04-26T02:38:08.851Z,76.56
2024-04-26T02:39:08.972Z,76.46
2024-04-26T02:40:08.819Z,76.87
2024-04-26T02:41:08.804Z,76.77
2024-04-26T02:42:08.848Z,77.08
2024-04-26T02:43:08.778Z,77.49
2024-04-26T02:44:08.771Z,77.70
2024-04-26T02:45:08.835Z,77.59
2024-04-26T02:46:08.778Z,77.49
2024-04-26T02:47:08.879Z,77.59
2024-04-26T02:48:08.852Z,77.59
2024-04-26T02:49:08.792Z,77.28
2024-04-26T02:50:08.703Z,77.28
2024-04-26T02:51:08.837Z,77.49
2024-04-26T02:52:08.692Z,77.59
2024-04-26T02:53:08.698Z,77.49
2024-04-26T02:54:08.717Z,77.28
2024-04-26T02:55:08.662Z,77.08
2024-04-26T02:56:08.662Z,77.18
2024-04-26T02:57:08.709Z,77.08
2024-04-26T02:58:08.639Z,77.08
2024-04-26T02:59:08.635Z,76.98
2024-04-26T03:00:08.772Z,76.98
2024-04-26T03:01:08.624Z,77.18
2024-04-26T03:02:08.626Z,77.28
2024-04-26T03:03:08.680Z,77.18
2024-04-26T03:04:08.581Z,77.18
2024-04-26T03:05:08.561Z,77.18
2024-04-26T03:06:08.639Z,77.18
2024-04-26T03:07:08.557Z,77.18
2024-04-26T03:08:08.556Z,77.28
2024-04-26T03:09:08.641Z,77.59
2024-04-26T03:10:08.529Z,77.49
2024-04-26T03:11:08.537Z,77.39
2024-04-26T03:12:08.570Z,77.28
2024-04-26T03:13:08.503Z,77.32
2024-04-26T03:14:08.454Z,77.28
2024-04-26T03:15:08.510Z,77.49
2024-04-26T03:16:08.499Z,77.32
2024-04-26T03:17:08.471Z,77.39
2024-04-26T03:18:08.610Z,77.42
2024-04-26T03:19:08.482Z,77.42
2024-04-26T03:20:08.409Z,77.42
2024-04-26T03:21:08.541Z,77.42
2024-04-26T03:22:08.387Z,77.22
2024-04-26T03:23:08.388Z,77.22
2024-04-26T03:24:08.452Z,77.32
2024-04-26T03:25:08.351Z,77.22
2024-04-26T03:26:08.370Z,77.22
2024-04-26T03:27:08.449Z,77.11
2024-04-26T03:28:08.342Z,77.11
2024-04-26T03:29:08.329Z,77.11
2024-04-26T03:30:08.422Z,77.22
2024-04-26T03:31:08.335Z,77.32
2024-04-26T03:32:08.352Z,77.25
2024-04-26T03:33:08.470Z,77.25
2024-04-26T03:34:08.297Z,77.22
2024-04-26T03:35:08.416Z,77.36
2024-04-26T03:36:08.758Z,77.36
2024-04-26T03:37:08.233Z,77.46
2024-04-26T03:38:08.219Z,77.36
2024-04-26T03:39:08.383Z,77.46
2024-04-26T03:40:08.241Z,77.56
2024-04-26T03:41:08.189Z,77.56
2024-04-26T03:42:08.287Z,77.67
2024-04-26T03:43:08.191Z,77.77
2024-04-26T03:44:08.179Z,77.91
2024-04-26T03:45:08.226Z,78.11
2024-04-26T03:46:08.150Z,78.11
2024-04-26T03:47:08.156Z,78.01
2024-04-26T03:48:08.350Z,78.01
2024-04-26T03:49:08.373Z,78.01
2024-04-26T03:50:08.107Z,77.91
2024-04-26T03:51:08.126Z,78.22
2024-04-26T03:52:08.068Z,78.22
2024-04-26T03:53:08.055Z,78.11
2024-04-26T03:54:08.112Z,78.11
2024-04-26T03:55:08.049Z,78.11
2024-04-26T03:56:08.036Z,78.11
2024-04-26T03:57:08.123Z,78.11
2024-04-26T03:58:08.033Z,78.22
2024-04-26T03:59:08.037Z,78.32
2024-04-26T04:00:08.112Z,78.22
2024-04-26T04:01:08.015Z,78.22
2024-04-26T04:02:07.960Z,78.22
2024-04-26T04:03:08.151Z,78.25
2024-04-26T04:04:08.098Z,78.15
2024-04-26T04:05:07.974Z,78.25
2024-04-26T04:06:08.117Z,78.25
2024-04-26T04:07:07.917Z,78.46
2024-04-26T04:08:07.929Z,78.36
2024-04-26T04:09:08.101Z,78.36
2024-04-26T04:10:07.891Z,78.46
2024-04-26T04:11:07.931Z,78.46
2024-04-26T04:12:07.942Z,78.36
2024-04-26T04:13:07.930Z,78.25
2024-04-26T04:14:07.882Z,78.15
2024-04-26T04:15:07.932Z,78.11
2024-04-26T04:16:07.814Z,77.84
2024-04-26T04:17:07.850Z,78.05
2024-04-26T04:18:07.850Z,78.56
2024-04-26T04:19:07.854Z,78.46
2024-04-26T04:20:07.797Z,78.36
2024-04-26T04:21:07.845Z,78.56
2024-04-26T04:22:07.759Z,78.77
2024-04-26T04:23:07.753Z,78.67
2024-04-26T04:24:07.834Z,78.56
2024-04-26T04:25:07.762Z,78.46
2024-04-26T04:26:07.733Z,78.11
2024-04-26T04:27:07.760Z,78.11
2024-04-26T04:28:07.706Z,78.01
2024-04-26T04:29:07.697Z,77.91
2024-04-26T04:30:07.736Z,77.87
2024-04-26T04:31:07.671Z,77.46
2024-04-26T04:32:08.447Z,77.25
2024-04-26T04:33:07.837Z,77.04
2024-04-26T04:34:07.733Z,76.94
2024-04-26T04:35:07.641Z,76.81
2024-04-26T04:36:07.740Z,76.70
2024-04-26T04:37:07.637Z,76.70
2024-04-26T04:38:07.600Z,76.50
2024-04-26T04:39:07.641Z,76.39
2024-04-26T04:40:07.596Z,76.39
2024-04-26T04:41:07.572Z,76.39
2024-04-26T04:42:07.641Z,76.35
2024-04-26T04:43:07.542Z,76.18
2024-04-26T04:44:07.546Z,75.95
2024-04-26T04:45:07.610Z,75.84
2024-04-26T04:46:07.506Z,75.63
2024-04-26T04:47:07.526Z,75.53
2024-04-26T04:48:07.564Z,75.74
2024-04-26T04:49:07.570Z,75.49
2024-04-26T04:50:07.501Z,75.29
2024-04-26T04:51:07.543Z,74.98
2024-04-26T04:52:07.458Z,74.19
2024-04-26T04:53:07.443Z,72.78
2024-04-26T04:54:07.528Z,70.76
2024-04-26T04:55:07.433Z,69.02
2024-04-26T04:56:07.424Z,66.90
2024-04-26T04:57:07.426Z,64.86
2024-04-26T04:58:07.397Z,62.62
2024-04-26T04:59:09.145Z,60.93
2024-04-26T05:00:07.572Z,60.24
2024-04-26T05:01:07.442Z,60.68
2024-04-26T05:02:07.350Z,61.01
2024-04-26T05:03:07.501Z,61.22
2024-04-26T05:04:07.591Z,61.86
2024-04-26T05:05:07.395Z,62.37
2024-04-26T05:06:07.448Z,62.92
2024-04-26T05:07:07.352Z,62.84
2024-04-26T05:08:07.284Z,63.35
2024-04-26T05:09:07.329Z,63.76
2024-04-26T05:10:07.359Z,63.22
2024-04-26T05:11:07.250Z,62.78
2024-04-26T05:12:07.321Z,62.37
2024-04-26T05:13:07.242Z,61.73
2024-04-26T05:14:07.243Z,60.88
2024-04-26T05:15:07.368Z,59.94
2024-04-26T05:16:07.261Z,59.14
2024-04-26T05:17:07.238Z,56.84
2024-04-26T05:18:07.337Z,55.76
2024-04-26T05:19:07.436Z,54.05
2024-04-26T05:20:07.189Z,51.95
2024-04-26T05:21:07.349Z,50.25
2024-04-26T05:22:07.139Z,48.07
2024-04-26T05:23:07.132Z,46.61
2024-04-26T05:24:07.267Z,46.61
2024-04-26T05:25:07.139Z,46.61
2024-04-26T05:26:07.116Z,46.95
2024-04-26T05:27:07.186Z,47.89
2024-04-26T05:28:07.070Z,48.32
2024-04-26T05:29:07.064Z,48.97
2024-04-26T05:30:07.178Z,50.24
2024-04-26T05:31:07.044Z,50.57
2024-04-26T05:32:07.063Z,51.20
2024-04-26T05:33:07.353Z,52.04
2024-04-26T05:34:07.084Z,52.35
2024-04-26T05:35:07.021Z,52.15
2024-04-26T05:36:07.092Z,52.53
2024-04-26T05:37:07.025Z,51.26
2024-04-26T05:38:06.977Z,50.32
2024-04-26T05:39:07.078Z,49.69
2024-04-26T05:40:07.043Z,49.48
2024-04-26T05:41:06.964Z,49.16
2024-04-26T05:42:07.932Z,49.13
2024-04-26T05:43:06.916Z,47.16
2024-04-26T05:44:06.917Z,46.30
2024-04-26T05:45:07.092Z,45.53
2024-04-26T05:46:06.896Z,43.87
2024-04-26T05:47:06.981Z,43.02
2024-04-26T05:48:07.033Z,43.06
2024-04-26T05:49:06.965Z,43.20
2024-04-26T05:50:09.142Z,43.18
2024-04-26T05:51:07.098Z,43.04
2024-04-26T05:52:06.847Z,42.74
2024-04-26T05:53:06.820Z,42.33
2024-04-26T05:54:06.984Z,41.71
2024-04-26T05:55:06.809Z,40.86
2024-04-26T05:56:06.771Z,40.23
2024-04-26T05:57:07.996Z,40.22
2024-04-26T05:58:06.775Z,40.00
2024-04-26T05:59:06.748Z,39.78
2024-04-26T06:00:06.866Z,38.93
2024-04-26T06:01:06.821Z,38.42
2024-04-26T06:02:06.756Z,37.17
2024-04-26T06:03:06.897Z,36.54
2024-04-26T06:04:06.850Z,35.60
2024-04-26T06:05:06.944Z,34.98
2024-04-26T06:06:06.667Z,34.36
2024-04-26T06:07:09.336Z,34.46
2024-04-26T06:08:06.647Z,34.34
2024-04-26T06:09:06.766Z,34.06
2024-04-26T06:10:06.656Z,34.26
2024-04-26T06:11:06.731Z,33.83
2024-04-26T06:12:06.626Z,32.91
2024-04-26T06:13:17.132Z,32.61
2024-04-26T06:14:06.642Z,32.29
2024-04-26T06:15:06.707Z,32.40
2024-04-26T06:16:06.585Z,32.38
2024-04-26T06:17:06.624Z,32.06
2024-04-26T06:18:06.656Z,31.16
2024-04-26T06:19:06.741Z,31.75
2024-04-26T06:20:06.556Z,31.34
2024-04-26T06:21:06.574Z,30.63
2024-04-26T06:22:06.510Z,30.65
2024-04-26T06:23:06.504Z,30.95
2024-04-26T06:24:06.622Z,30.63
2024-04-26T06:25:06.527Z,30.72
2024-04-26T06:26:06.468Z,30.11
2024-04-26T06:27:06.559Z,29.90
2024-04-26T06:28:06.476Z,29.48
2024-04-26T06:29:06.427Z,28.97
2024-04-26T06:30:06.429Z,29.05
2024-04-26T06:31:06.421Z,28.64
2024-04-26T06:32:06.451Z,28.85
2024-04-26T06:33:06.567Z,28.34
2024-04-26T06:34:06.576Z,28.55
2024-04-26T06:35:07.641Z,28.16
2024-04-26T06:36:06.427Z,28.69
2024-04-26T06:37:06.365Z,29.39
2024-04-26T06:38:06.333Z,29.39
2024-04-26T06:39:06.380Z,30.42
2024-04-26T06:40:06.342Z,31.05
2024-04-26T06:41:06.312Z,31.67
2024-04-26T06:42:06.419Z,31.90
2024-04-26T06:43:06.309Z,32.11
2024-04-26T06:44:17.464Z,32.62
2024-04-26T06:45:06.353Z,32.94
2024-04-26T06:46:06.439Z,34.16
2024-04-26T06:47:06.296Z,34.28
2024-04-26T06:48:06.402Z,34.51
2024-04-26T06:49:06.407Z,35.03
2024-04-26T06:50:06.323Z,36.36
2024-04-26T06:51:06.332Z,36.69
2024-04-26T06:52:06.186Z,36.10
2024-04-26T06:53:06.177Z,37.26
2024-04-26T06:54:06.273Z,38.08
2024-04-26T06:55:06.188Z,39.11
2024-04-26T06:56:06.147Z,39.13
2024-04-26T06:57:06.173Z,39.33
2024-04-26T06:58:06.142Z,39.65
2024-04-26T06:59:06.142Z,39.97
2024-04-26T07:00:06.164Z,39.97
2024-04-26T07:01:08.228Z,40.17
2024-04-26T07:02:06.278Z,39.85
2024-04-26T07:03:06.247Z,39.87
2024-04-26T07:04:06.360Z,39.65
2024-04-26T07:05:06.186Z,40.16
2024-04-26T07:06:06.075Z,39.75
2024-04-26T07:07:06.047Z,39.43
2024-04-26T07:08:06.004Z,39.61
2024-04-26T07:09:06.063Z,38.48
2024-04-26T07:10:06.030Z,38.77
2024-04-26T07:11:06.046Z,38.27
2024-04-26T07:12:06.097Z,37.14
2024-04-26T07:13:05.988Z,37.45
2024-04-26T07:14:05.966Z,37.74
2024-04-26T07:15:06.022Z,37.74
2024-04-26T07:16:13.173Z,38.05
2024-04-26T07:17:05.968Z,37.68
2024-04-26T07:18:06.041Z,37.70
2024-04-26T07:19:05.995Z,38.81
2024-04-26T07:20:05.977Z,38.60
2024-04-26T07:21:05.944Z,38.22
2024-04-26T07:22:05.904Z,39.04
2024-04-26T07:23:05.847Z,40.19
2024-04-26T07:24:05.878Z,40.30
2024-04-26T07:25:05.836Z,40.82
2024-04-26T07:26:05.822Z,42.15
2024-04-26T07:27:05.930Z,42.05
2024-04-26T07:28:05.813Z,42.25
2024-04-26T07:29:18.364Z,42.17
2024-04-26T07:30:05.846Z,42.17
2024-04-26T07:31:05.823Z,41.66
2024-04-26T07:32:05.791Z,42.07
2024-04-26T07:33:06.115Z,43.29
2024-04-26T07:34:06.009Z,43.29
2024-04-26T07:35:05.723Z,42.88
2024-04-26T07:36:05.797Z,43.37
2024-04-26T07:37:05.726Z,43.26
2024-04-26T07:38:05.713Z,42.66
2024-04-26T07:39:05.858Z,42.15
2024-04-26T07:40:05.694Z,41.16
2024-04-26T07:41:05.675Z,42.17
2024-04-26T07:42:05.862Z,42.49
2024-04-26T07:43:05.670Z,42.40
2024-04-26T07:44:05.654Z,42.29
2024-04-26T07:45:05.871Z,42.29
2024-04-26T07:46:05.664Z,43.20
2024-04-26T07:47:05.643Z,43.91
2024-04-26T07:48:05.820Z,43.71
2024-04-26T07:49:08.198Z,43.41
2024-04-26T07:50:05.745Z,42.69
2024-04-26T07:51:05.726Z,43.51
2024-04-26T07:52:05.566Z,44.32
2024-04-26T07:53:05.571Z,42.61
2024-04-26T07:54:05.693Z,44.44
2024-04-26T07:55:05.949Z,43.52
2024-04-26T07:56:05.534Z,43.52
2024-04-26T07:57:05.656Z,43.93
2024-04-26T07:58:05.521Z,42.90
2024-04-26T07:59:05.484Z,44.62
2024-04-26T08:00:05.537Z,44.01
2024-04-26T08:01:05.512Z,43.99
2024-04-26T08:02:05.466Z,44.29
2024-04-26T08:03:05.579Z,42.78
2024-04-26T08:04:05.729Z,41.99
2024-04-26T08:05:05.540Z,41.89
2024-04-26T08:06:05.460Z,40.98
2024-04-26T08:07:05.397Z,41.38
2024-04-26T08:08:05.387Z,41.26
2024-04-26T08:09:05.557Z,41.06
2024-04-26T08:10:05.383Z,42.07
2024-04-26T08:11:05.380Z,42.47
2024-04-26T08:12:05.548Z,41.38
2024-04-26T08:13:05.354Z,41.91
2024-04-26T08:14:05.350Z,42.52
2024-04-26T08:15:05.535Z,42.63
2024-04-26T08:16:05.343Z,42.33
2024-04-26T08:17:05.358Z,42.23
2024-04-26T08:18:05.531Z,42.03
2024-04-26T08:19:05.402Z,43.12
2024-04-26T08:20:05.310Z,43.52
2024-04-26T08:21:05.518Z,41.72
2024-04-26T08:22:05.296Z,42.31
2024-04-26T08:23:05.246Z,42.61
2024-04-26T08:24:05.467Z,42.01
2024-04-26T08:25:09.124Z,42.43
2024-04-26T08:26:05.436Z,43.44
2024-04-26T08:27:05.305Z,43.23
2024-04-26T08:28:05.189Z,43.93
2024-04-26T08:29:05.222Z,42.69
2024-04-26T08:30:05.276Z,42.40
2024-04-26T08:31:05.168Z,40.89
2024-04-26T08:32:05.167Z,42.01
2024-04-26T08:33:07.421Z,42.72
2024-04-26T08:34:05.289Z,40.69
2024-04-26T08:35:05.248Z,40.49
2024-04-26T08:36:05.207Z,39.78
2024-04-26T08:37:05.400Z,39.68
2024-04-26T08:38:05.081Z,39.58
2024-04-26T08:39:05.120Z,38.77
2024-04-26T08:40:05.228Z,38.95
2024-04-26T08:41:05.094Z,34.91
2024-04-26T08:42:05.072Z,35.92
2024-04-26T08:43:05.029Z,35.72
2024-04-26T08:44:05.036Z,37.34
2024-04-26T08:45:05.037Z,37.03
2024-04-26T08:46:05.003Z,36.61
2024-04-26T08:47:05.023Z,36.51
2024-04-26T08:48:05.256Z,36.81
2024-04-26T08:49:05.128Z,37.01
2024-04-26T08:50:04.954Z,36.61
2024-04-26T08:51:05.020Z,36.41
2024-04-26T08:52:04.951Z,37.30
2024-04-26T08:53:04.934Z,36.08
2024-04-26T08:54:04.993Z,35.99
2024-04-26T08:55:04.922Z,35.90
2024-04-26T08:56:04.892Z,35.30
2024-04-26T08:57:04.977Z,35.39
2024-04-26T08:58:04.877Z,34.09
2024-04-26T08:59:04.897Z,34.42
2024-04-26T09:00:05.180Z,35.53
2024-04-26T09:01:04.890Z,35.73
2024-04-26T09:02:04.845Z,37.35
2024-04-26T09:03:05.017Z,36.52
2024-04-26T09:04:05.009Z,35.72
2024-04-26T09:05:04.841Z,36.72
2024-04-26T09:06:04.896Z,37.13
2024-04-26T09:07:04.797Z,36.63
2024-04-26T09:08:04.782Z,36.93
2024-04-26T09:09:04.925Z,36.54
2024-04-26T09:10:04.770Z,36.65
2024-04-26T09:11:04.775Z,37.07
2024-04-26T09:12:04.871Z,36.24
2024-04-26T09:13:05.664Z,37.16
2024-04-26T09:14:04.745Z,38.39
2024-04-26T09:15:04.748Z,37.47
2024-04-26T09:16:04.700Z,37.08
2024-04-26T09:17:04.764Z,38.39
2024-04-26T09:18:04.915Z,38.08
2024-04-26T09:19:04.818Z,38.87
2024-04-26T09:20:04.675Z,37.74
2024-04-26T09:21:04.748Z,38.85
2024-04-26T09:22:04.625Z,37.62
2024-04-26T09:23:04.615Z,36.91
2024-04-26T09:24:04.671Z,37.62
2024-04-26T09:25:04.618Z,37.40
2024-04-26T09:26:04.579Z,35.78
2024-04-26T09:27:04.688Z,34.37
2024-04-26T09:28:04.558Z,34.17
2024-04-26T09:29:04.589Z,34.27
2024-04-26T09:30:04.809Z,34.79
2024-04-26T09:31:04.538Z,35.21
2024-04-26T09:32:13.157Z,35.21
2024-04-26T09:33:05.988Z,35.43
2024-04-26T09:34:04.736Z,36.04
2024-04-26T09:35:04.750Z,36.04
2024-04-26T09:36:05.092Z,36.93
2024-04-26T09:37:04.549Z,35.92
2024-04-26T09:38:04.462Z,35.41
2024-04-26T09:39:04.522Z,35.21
2024-04-26T09:40:04.443Z,35.31
2024-04-26T09:41:04.518Z,35.92
2024-04-26T09:42:04.593Z,35.31
2024-04-26T09:43:04.416Z,35.11
2024-04-26T09:44:04.453Z,34.38
2024-04-26T09:45:04.469Z,35.09
2024-04-26T09:46:04.394Z,34.99
2024-04-26T09:47:04.403Z,34.79
2024-04-26T09:48:04.516Z,34.40
2024-04-26T09:49:04.528Z,35.11
2024-04-26T09:50:04.348Z,35.41
2024-04-26T09:51:04.436Z,35.83
2024-04-26T09:52:04.329Z,37.05
2024-04-26T09:53:04.321Z,35.13
2024-04-26T09:54:04.504Z,35.31
2024-04-26T09:55:04.316Z,35.33
2024-04-26T09:56:04.302Z,36.05
2024-04-26T09:57:04.501Z,36.17
2024-04-26T09:58:04.260Z,36.98
2024-04-26T09:59:04.241Z,37.29
2024-04-26T10:00:04.242Z,37.59
2024-04-26T10:01:04.248Z,36.17
2024-04-26T10:02:04.251Z,35.57
2024-04-26T10:03:04.419Z,35.77
2024-04-26T10:04:04.485Z,35.06
2024-04-26T10:05:04.269Z,36.17
2024-04-26T10:06:04.266Z,37.07
2024-04-26T10:07:04.194Z,36.96
2024-04-26T10:08:04.183Z,36.05
2024-04-26T10:09:04.274Z,36.46
2024-04-26T10:10:04.157Z,36.25
2024-04-26T10:11:04.146Z,36.15
2024-04-26T10:12:04.209Z,36.27
2024-04-26T10:13:04.147Z,37.08
2024-04-26T10:14:04.120Z,36.58
2024-04-26T10:15:04.147Z,36.39
2024-04-26T10:16:04.078Z,37.10
2024-04-26T10:17:04.081Z,36.00
2024-04-26T10:18:04.252Z,35.90
2024-04-26T10:19:04.136Z,36.21
2024-04-26T10:20:04.055Z,36.30
2024-04-26T10:21:04.155Z,36.22
2024-04-26T10:22:04.025Z,36.30
2024-04-26T10:23:03.983Z,36.71
2024-04-26T10:24:04.171Z,37.42
2024-04-26T10:25:03.993Z,37.10
2024-04-26T10:26:03.960Z,37.81
2024-04-26T10:27:04.086Z,37.40
2024-04-26T10:28:03.935Z,37.51
2024-04-26T10:29:03.923Z,35.78
2024-04-26T10:30:04.309Z,35.77
2024-04-26T10:31:03.934Z,34.87
2024-04-26T10:32:03.963Z,35.07
2024-04-26T10:33:03.994Z,34.87
2024-04-26T10:34:04.288Z,35.99
2024-04-26T10:35:03.860Z,36.30
2024-04-26T10:36:03.930Z,36.61
2024-04-26T10:37:03.894Z,35.90
2024-04-26T10:38:03.882Z,36.30
2024-04-26T10:39:04.040Z,37.40
2024-04-26T10:40:03.818Z,36.80
2024-04-26T10:41:03.797Z,36.69
2024-04-26T10:42:03.915Z,37.30
2024-04-26T10:43:03.778Z,36.90
2024-04-26T10:44:03.780Z,37.40
2024-04-26T10:45:03.774Z,37.61
2024-04-26T10:46:03.748Z,37.52
2024-04-26T10:47:03.755Z,36.61
2024-04-26T10:48:03.864Z,36.83
2024-04-26T10:49:03.926Z,36.02
2024-04-26T10:50:03.804Z,36.41
2024-04-26T10:51:03.762Z,35.72
2024-04-26T10:52:03.712Z,36.21
2024-04-26T10:53:03.676Z,36.32
2024-04-26T10:54:03.884Z,37.42
2024-04-26T10:55:03.676Z,35.60
2024-04-26T10:56:03.705Z,35.80
2024-04-26T10:57:03.795Z,36.12
2024-04-26T10:58:03.629Z,36.53
2024-04-26T10:59:03.627Z,36.63
2024-04-26T11:00:03.792Z,36.02
2024-04-26T11:01:03.599Z,36.12
2024-04-26T11:02:03.573Z,36.93
2024-04-26T11:03:03.676Z,37.04
2024-04-26T11:04:03.768Z,37.04
2024-04-26T11:05:03.575Z,37.44
2024-04-26T11:06:03.650Z,36.21
2024-04-26T11:07:03.521Z,35.90
2024-04-26T11:08:03.512Z,36.59
2024-04-26T11:09:03.635Z,36.39
2024-04-26T11:10:03.540Z,37.29
2024-04-26T11:11:03.535Z,35.95
2024-04-26T11:12:03.598Z,35.75
2024-04-26T11:13:03.455Z,35.75
2024-04-26T11:14:03.447Z,37.27
2024-04-26T11:15:03.519Z,37.16
2024-04-26T11:16:03.437Z,37.77
2024-04-26T11:17:03.407Z,37.37
2024-04-26T11:18:03.573Z,37.07
2024-04-26T11:19:03.586Z,38.08
2024-04-26T11:20:03.630Z,38.79
2024-04-26T11:21:03.541Z,38.28
2024-04-26T11:22:03.433Z,37.27
2024-04-26T11:23:03.353Z,37.69
2024-04-26T11:24:03.476Z,37.08
2024-04-26T11:25:03.338Z,37.59
2024-04-26T11:26:03.307Z,37.59
2024-04-26T11:27:03.372Z,38.20
2024-04-26T11:28:03.280Z,38.82
2024-04-26T11:29:03.294Z,38.03
2024-04-26T11:30:03.419Z,38.35
2024-04-26T11:31:03.312Z,38.35
2024-04-26T11:32:03.339Z,38.45
2024-04-26T11:33:03.378Z,39.37
2024-04-26T11:34:03.362Z,39.26
2024-04-26T11:35:03.397Z,38.76
2024-04-26T11:36:03.212Z,38.74
2024-04-26T11:37:03.213Z,38.34
2024-04-26T11:38:03.214Z,38.34
2024-04-26T11:39:03.284Z,38.34
2024-04-26T11:40:03.232Z,39.25
2024-04-26T11:41:03.161Z,38.52
2024-04-26T11:42:03.185Z,37.71
2024-04-26T11:43:03.132Z,37.71
2024-04-26T11:44:03.124Z,37.10
2024-04-26T11:45:03.213Z,37.59
2024-04-26T11:46:03.115Z,37.59
2024-04-26T11:47:03.147Z,37.40
2024-04-26T11:48:03.216Z,36.68
2024-04-26T11:49:03.241Z,36.17
2024-04-26T11:50:03.425Z,36.17
2024-04-26T11:51:03.132Z,36.78
2024-04-26T11:52:03.043Z,36.17
2024-04-26T11:53:03.026Z,35.66
2024-04-26T11:54:03.113Z,35.86
2024-04-26T11:55:03.008Z,36.58
2024-04-26T11:56:03.007Z,36.05
2024-04-26T11:57:05.323Z,36.05
2024-04-26T11:58:02.986Z,36.15
2024-04-26T11:59:02.963Z,35.63
2024-04-26T12:00:03.059Z,35.43
2024-04-26T12:01:03.004Z,36.65
2024-04-26T12:02:02.919Z,34.91
2024-04-26T12:03:03.054Z,33.80
2024-04-26T12:04:03.036Z,33.61
2024-04-26T12:05:02.955Z,34.01
2024-04-26T12:06:02.939Z,35.22
2024-04-26T12:07:02.881Z,35.33
2024-04-26T12:08:02.858Z,35.43
2024-04-26T12:09:03.010Z,35.22
2024-04-26T12:10:02.830Z,35.24
2024-04-26T12:11:02.906Z,35.35
2024-04-26T12:12:02.851Z,36.25
2024-04-26T12:13:02.802Z,36.36
2024-04-26T12:14:02.844Z,36.46
2024-04-26T12:15:02.913Z,36.76
2024-04-26T12:16:02.785Z,36.76
2024-04-26T12:17:03.249Z,36.66
2024-04-26T12:18:02.876Z,36.87
2024-04-26T12:19:03.101Z,36.76
2024-04-26T12:20:02.728Z,36.66
2024-04-26T12:21:02.803Z,37.47
2024-04-26T12:22:02.734Z,37.79
2024-04-26T12:23:02.720Z,37.89
2024-04-26T12:24:02.777Z,36.78
2024-04-26T12:25:02.669Z,36.78
2024-04-26T12:26:02.682Z,37.08
2024-04-26T12:27:02.689Z,37.29
2024-04-26T12:28:02.684Z,37.59
2024-04-26T12:29:02.650Z,37.38
2024-04-26T12:30:02.697Z,37.08
2024-04-26T12:31:02.639Z,37.40
2024-04-26T12:32:02.605Z,37.81
2024-04-26T12:33:02.764Z,37.79
2024-04-26T12:34:02.904Z,38.40
2024-04-26T12:35:02.737Z,37.49
2024-04-26T12:36:02.594Z,37.59
2024-04-26T12:37:02.576Z,37.77
2024-04-26T12:38:02.547Z,37.88
2024-04-26T12:39:02.653Z,38.08
2024-04-26T12:40:02.505Z,37.67
2024-04-26T12:41:02.508Z,38.37
2024-04-26T12:42:02.548Z,37.23
2024-04-26T12:43:02.478Z,37.43
2024-04-26T12:44:02.511Z,36.12
2024-04-26T12:45:02.506Z,36.93
2024-04-26T12:46:02.456Z,37.23
2024-04-26T12:47:02.536Z,37.43
2024-04-26T12:48:02.675Z,38.35
2024-04-26T12:49:02.604Z,37.72
2024-04-26T12:50:02.444Z,37.62
2024-04-26T12:51:02.424Z,38.11
2024-04-26T12:52:02.405Z,36.69